createdAt,value
2019-01-22T00:01:47.848Z,-3.78
2019-01-22T00:04:44.330Z,-3.74
2019-01-22T00:07:39.806Z,-3.73
2019-01-22T00:10:37.191Z,-3.71
2019-01-22T00:13:32.592Z,-3.68
2019-01-22T00:16:28.722Z,-3.66
2019-01-22T00:19:26.883Z,-3.64
2019-01-22T00:22:23.662Z,-3.61
2019-01-22T00:25:19.562Z,-3.63
2019-01-22T00:28:16.304Z,-3.61
2019-01-22T00:31:11.819Z,-3.58
2019-01-22T00:34:08.364Z,-3.55
2019-01-22T00:37:03.846Z,-3.52
2019-01-22T00:40:00.300Z,-3.52
2019-01-22T00:42:55.903Z,-3.51
2019-01-22T00:45:52.144Z,-3.49
2019-01-22T00:48:49.901Z,-3.45
2019-01-22T00:51:45.395Z,-3.42
2019-01-22T00:54:41.923Z,-3.41
2019-01-22T00:57:37.338Z,-3.39
2019-01-22T01:00:43.485Z,-3.36
2019-01-22T01:03:41.332Z,-3.37
2019-01-22T01:06:36.791Z,-3.30
2019-01-22T01:09:33.262Z,-3.29
2019-01-22T01:12:28.773Z,-3.26
2019-01-22T01:15:24.232Z,-3.24
2019-01-22T01:18:19.904Z,-3.21
2019-01-22T01:21:16.639Z,-3.23
2019-01-22T01:24:12.107Z,-3.20
2019-01-22T01:27:08.790Z,-3.16
2019-01-22T01:30:06.342Z,-3.16
2019-01-22T01:33:01.855Z,-3.17
2019-01-22T01:35:57.482Z,-3.16
2019-01-22T01:38:52.968Z,-3.14
2019-01-22T01:41:50.690Z,-3.15
2019-01-22T01:44:46.384Z,-3.15
2019-01-22T01:47:43.231Z,-3.17
2019-01-22T01:50:39.663Z,-3.13
2019-01-22T01:53:36.454Z,-3.10
2019-01-22T01:56:37.040Z,-3.07
2019-01-22T01:59:37.596Z,-3.03
2019-01-22T02:02:35.522Z,-3.03
2019-01-22T02:05:31.009Z,-3.02
2019-01-22T02:08:27.648Z,-3.01
2019-01-22T02:11:24.344Z,-3.01
2019-01-22T02:14:21.012Z,-3.00
2019-01-22T02:17:41.792Z,-3.02
2019-01-22T02:21:07.111Z,-3.02
2019-01-22T02:24:51.246Z,-3.02
2019-01-22T02:28:10.830Z,-3.02
2019-01-22T02:31:35.753Z,-3.01
2019-01-22T02:35:07.235Z,-3.03
2019-01-22T02:38:25.800Z,-3.02
2019-01-22T02:41:47.140Z,-2.99
2019-01-22T02:45:10.973Z,-3.02
2019-01-22T02:48:26.874Z,-3.05
2019-01-22T02:51:47.492Z,-3.04
2019-01-22T02:54:58.729Z,-3.02
2019-01-22T02:58:29.204Z,-3.04
2019-01-22T03:01:49.952Z,-3.03
2019-01-22T03:04:55.055Z,-2.98
2019-01-22T03:08:16.684Z,-2.96
2019-01-22T03:11:56.519Z,-2.94
2019-01-22T03:15:14.915Z,-2.95
2019-01-22T03:18:32.755Z,-2.97
2019-01-22T03:21:57.044Z,-2.95
2019-01-22T03:25:25.000Z,-2.92
2019-01-22T03:28:46.402Z,-2.92
2019-01-22T03:32:17.413Z,-2.92
2019-01-22T03:35:50.801Z,-2.88
2019-01-22T03:39:31.809Z,-2.93
2019-01-22T03:42:46.329Z,-2.99
2019-01-22T03:46:03.244Z,-2.98
2019-01-22T03:49:31.952Z,-2.96
2019-01-22T03:52:45.830Z,-2.99
2019-01-22T03:56:03.245Z,-2.97
2019-01-22T03:58:58.718Z,-2.93
2019-01-22T04:01:56.143Z,-2.93
2019-01-22T04:04:52.500Z,-2.88
2019-01-22T04:07:57.131Z,-2.92
2019-01-22T04:11:06.000Z,-2.98
2019-01-22T04:14:02.537Z,-2.99
2019-01-22T04:16:59.011Z,-3.01
2019-01-22T04:19:54.676Z,-2.98
2019-01-22T04:23:11.617Z,-2.97
2019-01-22T04:26:29.834Z,-2.97
2019-01-22T04:29:55.679Z,-3.00
2019-01-22T04:33:06.664Z,-2.97
2019-01-22T04:36:20.943Z,-2.91
2019-01-22T04:40:01.357Z,-2.91
2019-01-22T04:43:18.679Z,-2.89
2019-01-22T04:46:46.139Z,-2.89
2019-01-22T04:50:21.648Z,-2.89
2019-01-22T04:53:35.627Z,-2.91
2019-01-22T04:57:01.845Z,-2.92
2019-01-22T05:00:29.983Z,-2.93
2019-01-22T05:03:57.613Z,-2.93
2019-01-22T05:07:29.264Z,-2.94
2019-01-22T05:11:05.321Z,-2.91
2019-01-22T05:14:20.250Z,-2.92
2019-01-22T05:17:39.776Z,-2.92
2019-01-22T05:20:54.663Z,-2.92
2019-01-22T05:24:08.536Z,-2.95
2019-01-22T05:27:45.498Z,-2.92
2019-01-22T05:31:17.352Z,-2.93
2019-01-22T05:34:55.105Z,-2.95
2019-01-22T05:38:31.077Z,-2.96
2019-01-22T05:42:10.694Z,-3.00
2019-01-22T05:45:26.730Z,-3.00
2019-01-22T05:48:40.017Z,-3.02
2019-01-22T05:52:00.516Z,-3.02
2019-01-22T05:55:18.144Z,-3.02
2019-01-22T05:58:52.563Z,-3.02
2019-01-22T06:02:00.513Z,-3.01
2019-01-22T06:05:18.256Z,-3.02
2019-01-22T06:08:41.743Z,-3.02
2019-01-22T06:11:56.838Z,-3.02
2019-01-22T06:15:31.397Z,-3.04
2019-01-22T06:18:51.306Z,-3.10
2019-01-22T06:22:38.706Z,-3.13
2019-01-22T06:26:10.716Z,-3.16
2019-01-22T06:29:45.071Z,-3.15
2019-01-22T06:33:21.099Z,-3.18
2019-01-22T06:37:00.619Z,-3.16
2019-01-22T06:40:23.725Z,-3.20
2019-01-22T06:44:00.805Z,-3.17
2019-01-22T06:47:16.243Z,-3.11
2019-01-22T06:50:31.592Z,-3.08
2019-01-22T06:53:59.494Z,-3.05
2019-01-22T06:57:45.212Z,-3.03
2019-01-22T07:01:16.921Z,-3.01
2019-01-22T07:05:03.721Z,-3.02
2019-01-22T07:08:31.303Z,-2.98
2019-01-22T07:11:44.176Z,-2.95
2019-01-22T07:14:59.761Z,-2.91
2019-01-22T07:18:16.480Z,-2.89
2019-01-22T07:21:48.137Z,-2.90
2019-01-22T07:25:04.891Z,-2.91
2019-01-22T07:28:28.540Z,-2.92
2019-01-22T07:31:44.557Z,-2.88
2019-01-22T07:35:23.181Z,-2.90
2019-01-22T07:38:43.657Z,-2.99
2019-01-22T07:42:13.469Z,-3.02
2019-01-22T07:45:43.903Z,-3.09
2019-01-22T07:48:47.879Z,-3.07
2019-01-22T07:52:11.193Z,-3.10
2019-01-22T07:55:53.606Z,-3.11
2019-01-22T07:59:20.349Z,-3.08
2019-01-22T08:02:45.065Z,-3.02
2019-01-22T08:05:58.977Z,-3.02
2019-01-22T08:09:12.855Z,-2.97
2019-01-22T08:12:23.683Z,-2.91
2019-01-22T08:15:38.651Z,-3.00
2019-01-22T08:19:02.817Z,-2.97
2019-01-22T08:22:28.700Z,-2.97
2019-01-22T08:25:46.516Z,-2.93
2019-01-22T08:29:08.748Z,-2.89
2019-01-22T08:32:35.469Z,-2.89
2019-01-22T08:36:06.206Z,-2.84
2019-01-22T08:39:35.955Z,-2.85
2019-01-22T08:42:45.511Z,-2.82
2019-01-22T08:46:14.342Z,-2.79
2019-01-22T08:49:31.581Z,-2.75
2019-01-22T08:53:00.154Z,-2.71
2019-01-22T08:56:13.743Z,-2.77
2019-01-22T08:59:28.177Z,-2.81
2019-01-22T09:02:52.831Z,-2.76
2019-01-22T09:06:24.550Z,-2.75
2019-01-22T09:09:51.683Z,-2.74
2019-01-22T09:13:07.339Z,-2.73
2019-01-22T09:16:13.445Z,-2.78
2019-01-22T09:19:31.246Z,-2.83
2019-01-22T09:23:00.301Z,-2.76
2019-01-22T09:26:15.614Z,-2.68
2019-01-22T09:29:38.643Z,-2.64
2019-01-22T09:33:21.275Z,-2.69
2019-01-22T09:37:02.197Z,-2.64
2019-01-22T09:39:57.641Z,-2.56
2019-01-22T09:43:06.597Z,-2.56
2019-01-22T09:46:03.280Z,-2.60
2019-01-22T09:49:00.154Z,-2.65
2019-01-22T09:51:56.912Z,-2.68
2019-01-22T09:54:52.635Z,-2.64
2019-01-22T09:57:49.744Z,-2.62
2019-01-22T10:00:46.460Z,-2.59
2019-01-22T10:03:43.049Z,-2.56
2019-01-22T10:06:38.569Z,-2.58
2019-01-22T10:09:35.358Z,-2.61
2019-01-22T10:12:30.529Z,-2.57
2019-01-22T10:15:26.982Z,-2.49
2019-01-22T10:18:23.362Z,-2.44
2019-01-22T10:21:20.016Z,-2.41
2019-01-22T10:24:15.335Z,-2.38
2019-01-22T10:27:22.416Z,-2.37
2019-01-22T10:30:18.950Z,-2.39
2019-01-22T10:33:14.300Z,-2.44
2019-01-22T10:36:10.794Z,-2.38
2019-01-22T10:39:07.552Z,-2.35
2019-01-22T10:42:08.135Z,-2.29
2019-01-22T10:45:09.865Z,-2.30
2019-01-22T10:48:12.374Z,-2.28
2019-01-22T10:51:09.079Z,-2.26
2019-01-22T10:54:04.610Z,-2.23
2019-01-22T10:57:01.218Z,-2.20
2019-01-22T10:59:57.780Z,-2.26
2019-01-22T11:02:54.668Z,-2.26
2019-01-22T11:05:55.953Z,-2.23
2019-01-22T11:08:52.810Z,-2.21
2019-01-22T11:11:55.482Z,-2.17
2019-01-22T11:14:50.797Z,-2.20
2019-01-22T11:17:48.604Z,-2.29
2019-01-22T11:20:48.091Z,-2.29
2019-01-22T11:23:44.720Z,-2.31
2019-01-22T11:26:40.461Z,-2.35
2019-01-22T11:29:37.192Z,-2.34
2019-01-22T11:32:35.066Z,-2.34
2019-01-22T11:35:30.702Z,-2.33
2019-01-22T11:38:29.393Z,-2.31
2019-01-22T11:41:25.926Z,-2.26
2019-01-22T11:44:22.010Z,-2.21
2019-01-22T11:47:19.637Z,-2.19
2019-01-22T11:50:17.518Z,-2.20
2019-01-22T11:53:13.170Z,-2.17
2019-01-22T11:56:09.924Z,-2.14
2019-01-22T11:59:06.421Z,-2.17
2019-01-22T12:02:04.118Z,-2.18
2019-01-22T12:05:00.758Z,-2.24
2019-01-22T12:07:56.159Z,-2.30
2019-01-22T12:10:53.294Z,-2.24
2019-01-22T12:13:54.136Z,-2.24
2019-01-22T12:16:52.283Z,-2.21
2019-01-22T12:19:48.686Z,-2.19
2019-01-22T12:22:45.519Z,-2.21
2019-01-22T12:25:42.330Z,-2.22
2019-01-22T12:28:38.039Z,-2.24
2019-01-22T12:31:34.738Z,-2.28
2019-01-22T12:34:30.286Z,-2.27
2019-01-22T12:37:27.535Z,-2.21
2019-01-22T12:40:25.789Z,-2.18
2019-01-22T12:43:21.380Z,-2.17
2019-01-22T12:46:19.979Z,-2.14
2019-01-22T12:49:16.656Z,-2.12
2019-01-22T12:52:18.051Z,-2.10
2019-01-22T12:55:21.521Z,-2.09
2019-01-22T12:58:18.121Z,-2.11
2019-01-22T13:01:14.776Z,-2.12
2019-01-22T13:04:10.339Z,-2.13
2019-01-22T13:07:06.919Z,-2.12
2019-01-22T13:10:02.662Z,-2.10
2019-01-22T13:12:59.328Z,-2.06
2019-01-22T13:15:55.869Z,-2.06
2019-01-22T13:18:50.853Z,-2.07
2019-01-22T13:21:47.399Z,-2.12
2019-01-22T13:24:43.123Z,-2.11
2019-01-22T13:27:39.662Z,-2.13
2019-01-22T13:30:42.397Z,-2.14
2019-01-22T13:33:40.341Z,-2.12
2019-01-22T13:36:36.896Z,-2.16
2019-01-22T13:39:31.928Z,-2.23
2019-01-22T13:42:29.506Z,-2.25
2019-01-22T13:45:26.409Z,-2.29
2019-01-22T13:48:23.101Z,-2.29
2019-01-22T13:51:20.914Z,-2.30
2019-01-22T13:54:16.233Z,-2.28
2019-01-22T13:57:12.851Z,-2.30
2019-01-22T14:00:09.653Z,-2.29
2019-01-22T14:03:06.447Z,-2.26
2019-01-22T14:06:02.825Z,-2.26
2019-01-22T14:08:58.299Z,-2.27
2019-01-22T14:11:56.433Z,-2.27
2019-01-22T14:14:51.408Z,-2.26
2019-01-22T14:17:52.341Z,-2.28
2019-01-22T14:20:50.052Z,-2.28
2019-01-22T14:23:45.838Z,-2.27
2019-01-22T14:26:42.580Z,-2.26
2019-01-22T14:29:38.387Z,-2.27
2019-01-22T14:32:36.008Z,-2.30
2019-01-22T14:35:31.308Z,-2.30
2019-01-22T14:38:27.593Z,-2.31
2019-01-22T14:41:25.474Z,-2.28
2019-01-22T14:44:23.206Z,-2.27
2019-01-22T14:47:24.071Z,-2.25
2019-01-22T14:50:19.763Z,-2.24
2019-01-22T14:53:16.346Z,-2.29
2019-01-22T14:56:12.984Z,-2.31
2019-01-22T14:59:08.719Z,-2.32
2019-01-22T15:02:06.457Z,-2.34
2019-01-22T15:05:12.264Z,-2.42
2019-01-22T15:08:15.276Z,-2.39
2019-01-22T15:11:19.181Z,-2.35
2019-01-22T15:14:14.929Z,-2.34
2019-01-22T15:17:11.724Z,-2.36
2019-01-22T15:20:07.311Z,-2.39
2019-01-22T15:23:05.175Z,-2.40
2019-01-22T15:25:59.890Z,-2.37
2019-01-22T15:28:56.046Z,-2.40
2019-01-22T15:31:51.540Z,-2.41
2019-01-22T15:34:48.359Z,-2.43
2019-01-22T15:37:43.871Z,-2.39
2019-01-22T15:40:47.661Z,-2.46
2019-01-22T15:43:39.784Z,-2.47
2019-01-22T15:46:36.716Z,-2.44
2019-01-22T15:49:33.111Z,-2.44
2019-01-22T15:52:29.687Z,-2.43
2019-01-22T15:55:28.107Z,-2.44
2019-01-22T15:58:23.296Z,-2.43
2019-01-22T16:01:19.794Z,-2.45
2019-01-22T16:04:16.550Z,-2.47
2019-01-22T16:07:12.183Z,-2.48
2019-01-22T16:10:08.880Z,-2.50
2019-01-22T16:13:04.414Z,-2.53
2019-01-22T16:16:01.139Z,-2.60
2019-01-22T16:18:57.558Z,-2.57
2019-01-22T16:21:53.341Z,-2.54
2019-01-22T16:24:50.187Z,-2.56
2019-01-22T16:27:46.077Z,-2.59
2019-01-22T16:30:43.575Z,-2.64
2019-01-22T16:33:40.964Z,-2.65
2019-01-22T16:36:37.543Z,-2.68
2019-01-22T16:39:33.254Z,-2.67
2019-01-22T16:42:31.515Z,-2.65
2019-01-22T16:45:28.316Z,-2.65
2019-01-22T16:48:25.525Z,-2.67
2019-01-22T16:51:22.400Z,-2.72
2019-01-22T16:54:17.918Z,-2.74
2019-01-22T16:57:14.464Z,-2.74
2019-01-22T17:00:10.205Z,-2.76
2019-01-22T17:03:07.855Z,-2.82
2019-01-22T17:06:15.509Z,-2.82
2019-01-22T17:09:11.053Z,-2.79
2019-01-22T17:12:07.393Z,-2.74
2019-01-22T17:15:02.959Z,-2.75
2019-01-22T17:18:04.811Z,-2.79
2019-01-22T17:21:06.382Z,-2.86
2019-01-22T17:24:03.959Z,-2.87
2019-01-22T17:27:00.389Z,-2.88
2019-01-22T17:29:55.364Z,-2.91
2019-01-22T17:32:57.729Z,-2.93
2019-01-22T17:35:57.537Z,-2.93
2019-01-22T17:38:54.259Z,-2.94
2019-01-22T17:41:51.095Z,-2.97
2019-01-22T17:44:48.744Z,-2.98
2019-01-22T17:47:45.430Z,-2.94
2019-01-22T17:50:43.185Z,-2.93
2019-01-22T17:53:41.781Z,-2.94
2019-01-22T17:56:38.346Z,-2.96
2019-01-22T17:59:33.918Z,-2.95
2019-01-22T18:02:34.786Z,-2.98
2019-01-22T18:05:24.681Z,-3.06
2019-01-22T18:08:21.224Z,-3.04
2019-01-22T18:11:16.810Z,-3.10
2019-01-22T18:14:14.316Z,-3.10
2019-01-22T18:17:10.110Z,-3.13
2019-01-22T18:20:06.812Z,-3.16
2019-01-22T18:23:03.469Z,-3.13
2019-01-22T18:26:00.117Z,-3.14
2019-01-22T18:28:56.087Z,-3.17
2019-01-22T18:31:51.780Z,-3.19
2019-01-22T18:34:49.458Z,-3.21
2019-01-22T18:37:45.172Z,-3.16
2019-01-22T18:40:42.199Z,-3.18
2019-01-22T18:43:38.719Z,-3.19
2019-01-22T18:46:35.537Z,-3.18
2019-01-22T18:49:31.315Z,-3.21
2019-01-22T18:52:27.181Z,-3.17
2019-01-22T18:55:24.846Z,-3.21
2019-01-22T18:58:20.555Z,-3.25
2019-01-22T19:01:17.030Z,-3.32
2019-01-22T19:04:13.784Z,-3.39
2019-01-22T19:07:10.798Z,-3.33
2019-01-22T19:10:06.058Z,-3.33
2019-01-22T19:13:02.874Z,-3.33
2019-01-22T19:16:00.306Z,-3.32
2019-01-22T19:18:56.287Z,-3.29
2019-01-22T19:21:52.915Z,-3.29
2019-01-22T19:24:49.854Z,-3.25
2019-01-22T19:27:46.741Z,-3.31
2019-01-22T19:30:45.990Z,-3.36
2019-01-22T19:33:42.707Z,-3.38
2019-01-22T19:36:39.744Z,-3.44
2019-01-22T19:39:35.206Z,-3.46
2019-01-22T19:42:31.477Z,-3.49
2019-01-22T19:45:31.598Z,-3.45
2019-01-22T19:48:27.806Z,-3.38
2019-01-22T19:51:23.281Z,-3.39
2019-01-22T19:54:20.188Z,-3.37
2019-01-22T19:57:16.770Z,-3.36
2019-01-22T20:00:14.595Z,-3.37
2019-01-22T20:03:11.220Z,-3.39
2019-01-22T20:06:08.777Z,-3.44
2019-01-22T20:09:06.447Z,-3.45
2019-01-22T20:12:03.147Z,-3.47
2019-01-22T20:14:58.792Z,-3.54
2019-01-22T20:17:56.535Z,-3.55
2019-01-22T20:20:52.205Z,-3.53
2019-01-22T20:23:48.886Z,-3.49
2019-01-22T20:26:45.370Z,-3.45
2019-01-22T20:29:42.246Z,-3.45
2019-01-22T20:32:38.945Z,-3.45
2019-01-22T20:35:37.543Z,-3.53
2019-01-22T20:38:35.545Z,-3.54
2019-01-22T20:41:31.117Z,-3.57
2019-01-22T20:44:28.048Z,-3.63
2019-01-22T20:47:25.526Z,-3.64
2019-01-22T20:50:21.388Z,-3.66
2019-01-22T20:53:17.984Z,-3.66
2019-01-22T20:56:14.964Z,-3.66
2019-01-22T20:59:12.659Z,-3.73
2019-01-22T21:02:08.026Z,-3.68
2019-01-22T21:05:05.134Z,-3.68
2019-01-22T21:08:00.719Z,-3.70
2019-01-22T21:10:56.955Z,-3.71
2019-01-22T21:13:53.687Z,-3.69
2019-01-22T21:16:49.188Z,-3.71
2019-01-22T21:19:45.604Z,-3.75
2019-01-22T21:22:41.334Z,-3.75
2019-01-22T21:25:38.196Z,-3.71
2019-01-22T21:28:34.001Z,-3.67
2019-01-22T21:31:30.109Z,-3.65
2019-01-22T21:34:27.093Z,-3.60
2019-01-22T21:37:23.847Z,-3.56
2019-01-22T21:40:20.427Z,-3.56
2019-01-22T21:43:20.071Z,-3.57
2019-01-22T21:46:22.585Z,-3.56
2019-01-22T21:49:20.545Z,-3.56
2019-01-22T21:52:22.090Z,-3.60
2019-01-22T21:55:25.066Z,-3.60
2019-01-22T21:58:22.669Z,-3.55
2019-01-22T22:01:19.428Z,-3.57
2019-01-22T22:04:14.989Z,-3.59
2019-01-22T22:07:13.152Z,-3.68
2019-01-22T22:10:09.560Z,-3.66
2019-01-22T22:13:06.114Z,-3.62
2019-01-22T22:16:04.861Z,-3.63
2019-01-22T22:19:06.259Z,-3.64
2019-01-22T22:22:03.020Z,-3.67
2019-01-22T22:24:59.631Z,-3.65
2019-01-22T22:27:56.154Z,-3.70
2019-01-22T22:30:54.094Z,-3.69
2019-01-22T22:33:49.569Z,-3.70
2019-01-22T22:36:46.065Z,-3.75
2019-01-22T22:39:41.396Z,-3.72
2019-01-22T22:42:38.839Z,-3.73
2019-01-22T22:45:34.218Z,-3.72
2019-01-22T22:48:31.672Z,-3.70
2019-01-22T22:51:26.642Z,-3.80
2019-01-22T22:54:23.222Z,-3.80
2019-01-22T22:57:19.693Z,-3.81
2019-01-22T23:00:17.262Z,-3.84
2019-01-22T23:03:12.717Z,-3.83
2019-01-22T23:06:08.618Z,-3.80
2019-01-22T23:09:06.131Z,-3.77
2019-01-22T23:12:00.957Z,-3.80
2019-01-22T23:14:57.349Z,-3.85
2019-01-22T23:17:54.093Z,-3.90
2019-01-22T23:20:50.745Z,-3.86
2019-01-22T23:23:46.851Z,-3.81
2019-01-22T23:26:43.665Z,-3.81
2019-01-22T23:29:40.211Z,-3.85
2019-01-22T23:32:36.701Z,-3.88
2019-01-22T23:35:32.170Z,-3.88
2019-01-22T23:38:29.011Z,-3.83
2019-01-22T23:41:25.424Z,-3.84
2019-01-22T23:44:22.052Z,-3.82
2019-01-22T23:47:18.525Z,-3.84
2019-01-22T23:50:13.951Z,-3.88
2019-01-22T23:53:17.877Z,-3.92
2019-01-22T23:56:13.605Z,-4.00
2019-01-22T23:59:11.192Z,-3.97
